createdAt,value
2024-05-09T00:01:50.463Z,101188.72
2024-05-09T00:06:52.316Z,101186.34
2024-05-09T00:11:54.199Z,101182.69
2024-05-09T00:16:56.072Z,101183.25
2024-05-09T00:21:57.880Z,101184.31
2024-05-09T00:26:59.648Z,101187.59
2024-05-09T00:32:01.575Z,101187.34
2024-05-09T00:37:03.557Z,101193.53
2024-05-09T00:42:05.354Z,101191.97
2024-05-09T00:47:08.226Z,101188.31
2024-05-09T00:52:10.575Z,101186.63
2024-05-09T00:57:12.430Z,101185.63
2024-05-09T01:02:15.563Z,101181.56
2024-05-09T01:07:17.359Z,101184.06
2024-05-09T01:12:19.238Z,101189.31
2024-05-09T01:17:21.360Z,101187.34
2024-05-09T01:22:23.768Z,101177.44
2024-05-09T01:27:25.592Z,101185.06
2024-05-09T01:32:27.519Z,101196.09
2024-05-09T01:37:29.439Z,101194.53
2024-05-09T01:42:31.357Z,101203.00
2024-05-09T01:47:33.298Z,101203.56
2024-05-09T01:52:38.767Z,101208.22
2024-05-09T01:57:40.520Z,101205.09
2024-05-09T02:02:46.447Z,101204.78
2024-05-09T02:07:48.355Z,101198.44
2024-05-09T02:12:50.133Z,101205.59
2024-05-09T02:17:52.070Z,101207.38
2024-05-09T02:22:54.011Z,101213.41
2024-05-09T02:27:55.801Z,101219.09
2024-05-09T02:32:57.709Z,101214.66
2024-05-09T02:37:59.871Z,101216.72
2024-05-09T02:43:01.837Z,101209.66
2024-05-09T02:48:04.173Z,101200.47
2024-05-09T02:53:07.230Z,101212.50
2024-05-09T02:58:09.879Z,101207.13
2024-05-09T03:03:14.252Z,101208.72
2024-05-09T03:08:17.418Z,101218.00
2024-05-09T03:13:19.447Z,101212.59
2024-05-09T03:18:21.378Z,101209.91
2024-05-09T03:23:23.517Z,101217.41
2024-05-09T03:28:25.330Z,101214.47
2024-05-09T03:33:27.352Z,101215.22
2024-05-09T03:38:29.282Z,101219.09
2024-05-09T03:43:31.105Z,101208.16
2024-05-09T03:48:35.759Z,101213.06
2024-05-09T03:53:37.659Z,101214.66
2024-05-09T03:58:39.482Z,101215.00
2024-05-09T04:03:41.515Z,101217.56
2024-05-09T04:08:43.370Z,101217.69
2024-05-09T04:13:45.265Z,101223.50
2024-05-09T04:18:47.183Z,101225.66
2024-05-09T04:23:49.014Z,101224.63
2024-05-09T04:28:50.921Z,101228.56
2024-05-09T04:33:53.035Z,101228.50
2024-05-09T04:38:54.873Z,101229.41
2024-05-09T04:43:56.719Z,101235.59
2024-05-09T04:48:58.595Z,101239.69
2024-05-09T04:54:00.348Z,101245.13
2024-05-09T04:59:02.128Z,101256.16
2024-05-09T05:04:04.047Z,101252.75
2024-05-09T05:09:05.993Z,101252.84
2024-05-09T05:14:07.805Z,101254.22
2024-05-09T05:19:12.027Z,101247.50
2024-05-09T05:24:15.212Z,101250.31
2024-05-09T05:29:20.207Z,101254.03
2024-05-09T05:34:22.483Z,101245.72
2024-05-09T05:39:24.334Z,101242.19
2024-05-09T05:44:26.304Z,101247.88
2024-05-09T05:49:28.302Z,101253.94
2024-05-09T05:54:30.129Z,101258.16
2024-05-09T05:59:32.053Z,101254.91
2024-05-09T06:04:34.032Z,101256.28
2024-05-09T06:09:35.848Z,101262.53
2024-05-09T06:14:37.768Z,101256.06
2024-05-09T06:19:39.723Z,101263.63
2024-05-09T06:24:41.563Z,101262.47
2024-05-09T06:29:43.360Z,101268.53
2024-05-09T06:34:46.875Z,101252.72
2024-05-09T06:39:48.767Z,101263.94
2024-05-09T06:44:50.678Z,101251.13
2024-05-09T06:49:53.396Z,101260.06
2024-05-09T06:54:55.161Z,101264.44
2024-05-09T07:00:00.909Z,101252.28
2024-05-09T07:05:03.166Z,101261.97
2024-05-09T07:10:07.782Z,101261.16
2024-05-09T07:15:11.908Z,101256.91
2024-05-09T07:20:23.100Z,101252.16
2024-05-09T07:25:29.884Z,101257.03
2024-05-09T07:30:34.378Z,101254.50
2024-05-09T07:35:37.092Z,101264.00
2024-05-09T07:40:40.419Z,101260.31
2024-05-09T07:45:51.133Z,101245.47
2024-05-09T07:52:39.204Z,101245.88
2024-05-09T07:56:19.130Z,101243.50
2024-05-09T08:01:25.865Z,101234.78
2024-05-09T08:06:28.110Z,101234.09
2024-05-09T08:11:32.191Z,101225.16
2024-05-09T08:16:34.143Z,101225.34
2024-05-09T08:21:36.343Z,101223.28
2024-05-09T08:26:38.710Z,101224.28
2024-05-09T08:31:40.518Z,101224.31
2024-05-09T08:36:42.442Z,101228.03
2024-05-09T08:41:49.712Z,101221.91
2024-05-09T08:46:51.839Z,101215.50
2024-05-09T08:51:53.671Z,101214.66
2024-05-09T08:56:56.366Z,101209.69
2024-05-09T09:01:59.135Z,101207.97
2024-05-09T09:07:03.369Z,101211.81
2024-05-09T09:12:06.720Z,101209.22
2024-05-09T09:17:16.258Z,101205.34
2024-05-09T09:22:19.834Z,101215.88
2024-05-09T09:27:22.265Z,101215.19
2024-05-09T09:32:28.495Z,101216.97
2024-05-09T09:37:30.566Z,101209.09
2024-05-09T09:42:35.321Z,101208.75
2024-05-09T09:47:39.930Z,101214.31
2024-05-09T09:52:42.021Z,101197.22
2024-05-09T09:57:48.793Z,101206.63
2024-05-09T10:02:50.671Z,101199.59
2024-05-09T10:07:53.094Z,101202.06
2024-05-09T10:13:05.093Z,101201.63
2024-05-09T10:18:07.443Z,101209.03
2024-05-09T10:23:29.599Z,101187.31
2024-05-09T10:28:33.312Z,101191.63
2024-05-09T10:33:54.552Z,101184.84
2024-05-09T10:38:56.571Z,101180.34
2024-05-09T10:43:58.355Z,101172.72
2024-05-09T10:49:03.339Z,101185.69
2024-05-09T10:54:07.801Z,101181.56
2024-05-09T10:59:09.619Z,101169.66
2024-05-09T11:04:11.578Z,101166.81
2024-05-09T11:09:13.550Z,101163.94
2024-05-09T11:14:15.416Z,101157.53
2024-05-09T11:19:19.750Z,101158.88
2024-05-09T11:24:22.826Z,101161.81
2024-05-09T11:29:39.832Z,101153.41
2024-05-09T11:34:42.403Z,101142.81
2024-05-09T11:39:44.414Z,101147.38
2024-05-09T11:44:46.257Z,101137.47
2024-05-09T11:49:48.369Z,101130.47
2024-05-09T11:54:50.308Z,101130.03
2024-05-09T11:59:52.125Z,101127.25
2024-05-09T12:04:54.048Z,101123.16
2024-05-09T12:09:55.945Z,101113.69
2024-05-09T12:14:57.707Z,101111.06
2024-05-09T12:19:59.610Z,101109.53
2024-05-09T12:25:04.755Z,101122.38
2024-05-09T12:30:11.264Z,101099.75
2024-05-09T12:35:14.320Z,101108.59
2024-05-09T12:40:23.154Z,101102.47
2024-05-09T12:45:33.477Z,101085.38
2024-05-09T12:50:35.944Z,101089.41
2024-05-09T12:55:44.980Z,101072.69
2024-05-09T13:00:55.142Z,101066.47
2024-05-09T13:05:56.990Z,101056.25
2024-05-09T13:10:58.850Z,101047.63
2024-05-09T13:16:00.811Z,101046.75
2024-05-09T13:21:02.597Z,101034.47
2024-05-09T13:26:04.682Z,101039.16
2024-05-09T13:31:06.487Z,101042.97
2024-05-09T13:36:08.340Z,101032.53
2024-05-09T13:41:11.599Z,101024.97
2024-05-09T13:46:13.483Z,101024.78
2024-05-09T13:51:15.303Z,101028.59
2024-05-09T13:56:17.082Z,101015.47
2024-05-09T14:01:18.989Z,101010.97
2024-05-09T14:06:21.128Z,100998.81
2024-05-09T14:11:23.155Z,101006.56
2024-05-09T14:16:25.218Z,100997.94
2024-05-09T14:21:27.084Z,100993.00
2024-05-09T14:26:28.911Z,100992.59
2024-05-09T14:31:30.692Z,100984.00
2024-05-09T14:36:33.334Z,100983.84
2024-05-09T14:41:35.163Z,100965.88
2024-05-09T14:46:37.076Z,100964.59
2024-05-09T14:51:40.071Z,100968.91
2024-05-09T14:56:41.980Z,100953.06
2024-05-09T15:01:43.763Z,100946.84
2024-05-09T15:06:48.174Z,100946.16
2024-05-09T15:11:50.169Z,100941.59
2024-05-09T15:16:52.177Z,100938.06
2024-05-09T15:21:54.009Z,100940.19
2024-05-09T15:26:55.894Z,100932.97
2024-05-09T15:31:57.716Z,100924.59
2024-05-09T15:36:59.826Z,100921.63
2024-05-09T15:42:02.773Z,100919.53
2024-05-09T15:47:04.602Z,100908.78
2024-05-09T15:52:06.631Z,100909.81
2024-05-09T15:57:08.559Z,100904.28
2024-05-09T16:02:11.564Z,100903.66
2024-05-09T16:07:13.627Z,100903.16
2024-05-09T16:12:15.456Z,100898.25
2024-05-09T16:17:17.363Z,100887.66
2024-05-09T16:22:19.252Z,100893.34
2024-05-09T16:27:22.170Z,100879.44
2024-05-09T16:32:24.334Z,100887.44
2024-05-09T16:37:29.414Z,100886.53
2024-05-09T16:42:31.476Z,100887.72
2024-05-09T16:47:33.536Z,100883.16
2024-05-09T16:52:35.503Z,100892.31
2024-05-09T16:57:37.426Z,100885.00
2024-05-09T17:02:40.082Z,100882.47
2024-05-09T17:07:41.994Z,100881.97
2024-05-09T17:12:43.794Z,100876.13
2024-05-09T17:17:45.624Z,100879.25
2024-05-09T17:22:47.488Z,100884.44
2024-05-09T17:27:49.328Z,100888.47
2024-05-09T17:32:51.146Z,100880.25
2024-05-09T17:37:52.991Z,100874.34
2024-05-09T17:42:54.774Z,100874.34
2024-05-09T17:47:56.904Z,100875.75
2024-05-09T17:52:58.945Z,100877.06
2024-05-09T17:58:01.069Z,100874.25
2024-05-09T18:03:03.040Z,100877.69
2024-05-09T18:08:08.544Z,100872.00
2024-05-09T18:13:12.091Z,100871.22
2024-05-09T18:18:14.282Z,100868.41
2024-05-09T18:23:18.027Z,100866.50
2024-05-09T18:28:21.118Z,100872.06
2024-05-09T18:33:24.492Z,100865.03
2024-05-09T18:38:26.994Z,100872.34
2024-05-09T18:43:37.922Z,100870.41
2024-05-09T18:48:44.071Z,100872.00
2024-05-09T18:53:46.292Z,100882.34
2024-05-09T18:58:48.077Z,100887.69
2024-05-09T19:03:50.381Z,100893.78
2024-05-09T19:08:52.321Z,100904.34
2024-05-09T19:13:54.232Z,100896.78
2024-05-09T19:18:56.914Z,100900.34
2024-05-09T19:23:58.764Z,100904.09
2024-05-09T19:29:00.513Z,100895.50
2024-05-09T19:34:02.659Z,100898.19
2024-05-09T19:39:04.474Z,100903.66
2024-05-09T19:44:06.274Z,100899.28
2024-05-09T19:49:08.309Z,100912.25
2024-05-09T19:54:10.675Z,100910.38
2024-05-09T19:59:12.972Z,100906.69
2024-05-09T20:04:14.980Z,100915.50
2024-05-09T20:09:17.451Z,100916.53
2024-05-09T20:14:19.204Z,100921.28
2024-05-09T20:19:21.313Z,100912.84
2024-05-09T20:24:23.167Z,100910.34
2024-05-09T20:29:25.022Z,100920.94
2024-05-09T20:34:26.881Z,100915.38
2024-05-09T20:39:28.688Z,100922.97
2024-05-09T20:44:30.496Z,100923.31
2024-05-09T20:49:32.395Z,100924.50
2024-05-09T20:54:34.438Z,100927.34
2024-05-09T20:59:37.815Z,100918.56
2024-05-09T21:04:39.820Z,100929.38
2024-05-09T21:09:41.770Z,100933.22
2024-05-09T21:14:43.575Z,100939.75
2024-05-09T21:19:45.533Z,100942.28
2024-05-09T21:24:47.574Z,100939.59
2024-05-09T21:29:49.384Z,100940.94
2024-05-09T21:34:51.210Z,100930.28
2024-05-09T21:39:53.026Z,100934.84
2024-05-09T21:44:54.838Z,100933.06
2024-05-09T21:49:56.720Z,100933.38
2024-05-09T21:54:58.742Z,100938.97
2024-05-09T22:00:00.636Z,100931.50
2024-05-09T22:05:02.465Z,100935.53
2024-05-09T22:10:08.039Z,100935.16
2024-05-09T22:15:11.675Z,100931.53
2024-05-09T22:20:21.831Z,100939.50
2024-05-09T22:25:31.202Z,100943.38
2024-05-09T22:30:37.802Z,100942.47
2024-05-09T22:35:41.604Z,100941.53
2024-05-09T22:40:48.286Z,100935.53
2024-05-09T22:45:55.549Z,100934.94
2024-05-09T22:50:57.558Z,100937.59
2024-05-09T22:55:59.328Z,100935.13
2024-05-09T23:01:01.220Z,100934.69
2024-05-09T23:06:06.140Z,100933.47
2024-05-09T23:11:08.024Z,100931.03
2024-05-09T23:16:10.179Z,100929.34
2024-05-09T23:21:12.019Z,100921.91
2024-05-09T23:26:13.776Z,100928.75
2024-05-09T23:31:15.618Z,100924.69
2024-05-09T23:36:17.390Z,100925.41
2024-05-09T23:41:19.183Z,100916.16
2024-05-09T23:46:21.042Z,100920.00
2024-05-09T23:51:23.009Z,100913.88
2024-05-09T23:56:24.784Z,100918.88
